Time;durP1;ratioP1;P1;durP2;ratioP2;P2;SDS_P1;SDS_P2;PMS_P1;PMS_P2;Temp;Humidity;BMP_temperature;BMP_pressure;BME280_temperature;BME280_humidity;BME280_pressure;Samples;Min_cycle;Max_cycle;Signal;HPM_P1;HPM_P2
2022/01/10 00:00:16;;;;;;;0.90;0.90;;;4.90;99.90;;;;;;5026335;28;20205;-65
2022/01/10 00:02:45;;;;;;;1.00;1.00;;;4.90;99.90;;;;;;5019095;28;20209;-65
2022/01/10 00:05:12;;;;;;;1.00;1.00;;;4.90;99.90;;;;;;5020868;28;20240;-64
2022/01/10 00:07:39;;;;;;;0.90;0.90;;;4.90;99.90;;;;;;5023313;28;20207;-64
2022/01/10 00:10:07;;;;;;;0.90;0.90;;;4.90;99.90;;;;;;5024701;28;20315;-66
2022/01/10 00:12:35;;;;;;;0.90;0.90;;;4.90;99.90;;;;;;5021003;28;20287;-65
2022/01/10 00:15:02;;;;;;;0.80;0.80;;;4.90;99.90;;;;;;5023742;28;20308;-66
2022/01/10 00:17:30;;;;;;;0.80;0.80;;;5.00;99.90;;;;;;5019077;28;20220;-66
2022/01/10 00:19:57;;;;;;;0.90;0.90;;;5.00;99.90;;;;;;5021622;28;20685;-67
2022/01/10 00:22:26;;;;;;;0.80;0.80;;;5.00;99.90;;;;;;5023822;28;20207;-67
2022/01/10 00:24:52;;;;;;;0.80;0.80;;;4.90;99.90;;;;;;5024415;28;20247;-66
2022/01/10 00:27:19;;;;;;;0.80;0.80;;;4.90;99.90;;;;;;5023239;28;20205;-67
2022/01/10 00:29:46;;;;;;;0.80;0.80;;;4.80;99.90;;;;;;5021484;28;20325;-65
2022/01/10 00:32:13;;;;;;;0.70;0.70;;;4.80;99.90;;;;;;5024924;28;20213;-67
2022/01/10 00:34:41;;;;;;;0.90;0.90;;;4.70;99.90;;;;;;5022545;28;20292;-66
2022/01/10 00:37:08;;;;;;;0.90;0.90;;;4.60;99.90;;;;;;5023766;28;20220;-67
2022/01/10 00:39:35;;;;;;;0.80;0.80;;;4.60;99.90;;;;;;5029172;28;20304;-65
2022/01/10 00:42:02;;;;;;;0.80;0.80;;;4.70;99.90;;;;;;5026603;28;20211;-67
2022/01/10 00:44:31;;;;;;;0.60;0.60;;;4.70;99.90;;;;;;5028226;28;20208;-67
2022/01/10 00:46:58;;;;;;;0.90;0.90;;;4.70;99.90;;;;;;5025621;28;20206;-65
2022/01/10 00:49:25;;;;;;;0.90;0.90;;;4.70;99.90;;;;;;5026779;28;20303;-66
2022/01/10 00:51:53;;;;;;;0.80;0.80;;;4.60;99.90;;;;;;5023906;28;20651;-67
2022/01/10 00:54:20;;;;;;;0.80;0.80;;;4.60;99.90;;;;;;5045456;28;20207;-67
2022/01/10 00:56:47;;;;;;;0.63;0.63;;;4.60;99.90;;;;;;5046011;28;20247;-64
2022/01/10 00:59:14;;;;;;;0.70;0.70;;;4.60;99.90;;;;;;5048118;28;20304;-67
2022/01/10 01:01:41;;;;;;;0.80;0.80;;;4.60;99.90;;;;;;5045539;28;20205;-65
2022/01/10 01:04:08;;;;;;;0.80;0.80;;;4.70;99.90;;;;;;5031175;28;20205;-66
2022/01/10 01:06:35;;;;;;;0.70;0.70;;;4.80;99.90;;;;;;5026785;28;20586;-65
2022/01/10 01:09:08;;;;;;;0.82;0.82;;;4.90;99.90;;;;;;5024965;28;20249;-66
2022/01/10 01:12:08;;;;;;;0.82;0.82;;;4.90;99.90;;;;;;5024942;28;20249;-67
2022/01/10 01:14:51;;;;;;;0.70;0.70;;;4.90;99.90;;;;;;5039599;28;20606;-66
2022/01/10 01:20:30;;;;;;;0.77;0.77;;;4.90;99.90;;;;;;5115799;27;21439;-66
2022/01/10 01:25:41;;;;;;;0.80;0.80;;;4.90;99.90;;;;;;5113334;28;20188;-66
2022/01/10 01:28:08;;;;;;;0.80;0.80;;;4.90;99.90;;;;;;5123630;28;20234;-66
2022/01/10 01:30:35;;;;;;;0.80;0.80;;;4.80;99.90;;;;;;5122370;28;20225;-66
2022/01/10 01:33:02;;;;;;;0.73;0.73;;;4.80;99.90;;;;;;5113010;28;20202;-66
2022/01/10 01:35:34;;;;;;;0.75;0.75;;;4.80;99.90;;;;;;5099272;28;20203;-65
2022/01/10 01:38:01;;;;;;;0.80;0.80;;;4.80;99.90;;;;;;5095657;28;20226;-66
2022/01/10 01:40:29;;;;;;;0.60;0.60;;;4.80;99.90;;;;;;5091455;28;20195;-65
2022/01/10 01:42:56;;;;;;;0.80;0.80;;;4.80;99.90;;;;;;5094033;28;20317;-66
2022/01/10 01:45:37;;;;;;;0.90;0.90;;;4.90;99.90;;;;;;5113291;22;20229;-61
2022/01/10 01:48:04;;;;;;;0.90;0.90;;;5.00;99.90;;;;;;5027909;28;20211;-60
2022/01/10 01:50:33;;;;;;;0.90;0.90;;;4.90;99.90;;;;;;5036157;28;20207;-62
2022/01/10 01:52:59;;;;;;;0.80;0.80;;;4.90;99.90;;;;;;5034810;28;20691;-61
2022/01/10 01:55:26;;;;;;;0.88;0.88;;;4.80;99.90;;;;;;5036965;28;20236;-62
2022/01/10 01:57:53;;;;;;;0.70;0.70;;;4.80;99.90;;;;;;5033039;28;20292;-62
2022/01/10 02:00:22;;;;;;;0.70;0.70;;;4.80;99.90;;;;;;5035022;28;20652;-60
2022/01/10 02:02:50;;;;;;;0.75;0.75;;;4.80;99.90;;;;;;5030090;28;20236;-62
2022/01/10 02:05:17;;;;;;;0.70;0.70;;;4.80;99.90;;;;;;5034832;28;20207;-62
2022/01/10 02:07:45;;;;;;;0.70;0.70;;;4.80;99.90;;;;;;5031830;28;20255;-61
2022/01/10 02:10:13;;;;;;;0.90;0.90;;;4.80;99.90;;;;;;5026995;28;20284;-61
2022/01/10 02:12:40;;;;;;;0.90;0.90;;;4.80;99.90;;;;;;5025108;28;20200;-61
2022/01/10 02:15:08;;;;;;;0.70;0.70;;;4.80;99.90;;;;;;5026099;28;20205;-61
2022/01/10 02:17:38;;;;;;;0.80;0.80;;;4.80;99.90;;;;;;5024967;28;20252;-62
2022/01/10 02:20:07;;;;;;;0.80;0.80;;;4.90;99.90;;;;;;5028937;28;20225;-61
2022/01/10 02:22:35;;;;;;;0.70;0.70;;;4.90;99.90;;;;;;5027732;28;20693;-61
2022/01/10 02:25:02;;;;;;;0.70;0.70;;;5.00;99.90;;;;;;5022951;28;20211;-60
2022/01/10 02:27:29;;;;;;;0.77;0.77;;;5.10;99.90;;;;;;5028434;28;20217;-61
2022/01/10 02:29:55;;;;;;;0.50;0.50;;;5.10;99.90;;;;;;5022713;28;20201;-63
2022/01/10 02:32:22;;;;;;;0.80;0.80;;;5.10;99.90;;;;;;5009844;28;20301;-62
2022/01/10 02:34:49;;;;;;;0.67;0.67;;;5.10;99.90;;;;;;5013270;28;20260;-61
2022/01/10 02:37:32;;;;;;;0.70;0.70;;;5.20;99.90;;;;;;5013157;28;20304;-63
2022/01/10 02:40:02;;;;;;;0.68;0.68;;;5.20;99.90;;;;;;5020605;28;20308;-63
2022/01/10 02:42:29;;;;;;;0.63;0.63;;;5.20;99.90;;;;;;5025897;28;20681;-61
2022/01/10 02:44:56;;;;;;;0.70;0.70;;;5.30;99.90;;;;;;5038464;28;20276;-61
2022/01/10 02:47:29;;;;;;;0.80;0.80;;;5.20;99.90;;;;;;5038337;28;20309;-62
2022/01/10 02:49:55;;;;;;;0.80;0.80;;;5.20;99.90;;;;;;5039355;28;20598;-60
2022/01/10 02:52:22;;;;;;;0.80;0.80;;;5.20;99.90;;;;;;5038917;28;20298;-60
2022/01/10 02:54:51;;;;;;;0.87;0.87;;;5.20;99.90;;;;;;5038740;28;21022;-62
2022/01/10 02:57:17;;;;;;;0.70;0.70;;;5.20;99.90;;;;;;5039875;28;20256;-62
2022/01/10 02:59:44;;;;;;;0.83;0.83;;;5.20;99.90;;;;;;5047851;28;20256;-61
2022/01/10 03:02:11;;;;;;;0.80;0.80;;;5.20;99.90;;;;;;5050210;28;20239;-61
2022/01/10 03:04:38;;;;;;;0.63;0.63;;;5.10;99.90;;;;;;5046325;28;20241;-60
2022/01/10 03:07:06;;;;;;;0.60;0.60;;;5.10;99.90;;;;;;5046733;28;20309;-63
2022/01/10 03:09:34;;;;;;;0.90;0.90;;;5.10;99.90;;;;;;5040579;28;20205;-62
2022/01/10 03:12:02;;;;;;;0.70;0.70;;;5.10;99.90;;;;;;5039937;28;20209;-62
2022/01/10 03:14:29;;;;;;;0.80;0.80;;;5.10;99.90;;;;;;5039501;28;20754;-62
2022/01/10 03:16:56;;;;;;;0.70;0.70;;;5.20;99.90;;;;;;5038087;28;20263;-63
2022/01/10 03:19:23;;;;;;;0.75;0.75;;;5.10;99.90;;;;;;5037300;28;20220;-60
2022/01/10 03:21:50;;;;;;;0.80;0.80;;;5.10;99.90;;;;;;5039065;28;20215;-62
2022/01/10 03:24:16;;;;;;;0.63;0.63;;;5.10;99.90;;;;;;5038384;28;20269;-61
2022/01/10 03:26:43;;;;;;;0.70;0.70;;;5.10;99.90;;;;;;5027953;28;20292;-61
2022/01/10 03:29:12;;;;;;;0.70;0.70;;;5.10;99.90;;;;;;5024199;28;20546;-62
2022/01/10 03:31:39;;;;;;;0.70;0.70;;;5.10;99.90;;;;;;5022758;28;20679;-62
2022/01/10 03:34:10;;;;;;;0.90;0.90;;;5.10;99.90;;;;;;5017657;28;20273;-60
2022/01/10 03:36:37;;;;;;;0.80;0.80;;;5.10;99.90;;;;;;5024106;28;20220;-60
2022/01/10 03:39:04;;;;;;;0.60;0.60;;;5.10;99.90;;;;;;5029411;28;20316;-61
2022/01/10 03:41:31;;;;;;;0.90;0.90;;;5.00;99.90;;;;;;5036758;28;20243;-59
2022/01/10 03:43:58;;;;;;;0.77;0.77;;;4.90;99.90;;;;;;5037737;28;20204;-63
2022/01/10 03:46:27;;;;;;;0.80;0.80;;;4.80;99.90;;;;;;5037583;28;20266;-62
2022/01/10 03:48:54;;;;;;;0.90;0.90;;;4.80;99.90;;;;;;5037807;28;20712;-62
2022/01/10 03:51:21;;;;;;;0.70;0.70;;;4.80;99.90;;;;;;5036470;28;20243;-62
2022/01/10 03:53:48;;;;;;;0.85;0.85;;;4.80;99.90;;;;;;5037029;28;20272;-63
2022/01/10 03:56:15;;;;;;;0.80;0.80;;;4.90;99.90;;;;;;5036471;28;20794;-62
2022/01/10 03:58:42;;;;;;;0.70;0.70;;;4.90;99.90;;;;;;5041842;28;20300;-60
2022/01/10 04:01:09;;;;;;;0.80;0.80;;;4.80;99.90;;;;;;5037503;28;20280;-61
2022/01/10 04:03:38;;;;;;;0.80;0.80;;;4.90;99.90;;;;;;5036770;28;20209;-59
2022/01/10 04:06:05;;;;;;;0.90;0.90;;;4.90;99.90;;;;;;5037220;28;20256;-62
2022/01/10 04:08:33;;;;;;;0.70;0.70;;;4.80;99.90;;;;;;5036871;28;20295;-61
2022/01/10 04:11:00;;;;;;;0.70;0.70;;;4.90;99.90;;;;;;5036524;28;20213;-61
2022/01/10 04:13:27;;;;;;;0.70;0.70;;;4.90;99.90;;;;;;5036791;28;20299;-60
2022/01/10 04:15:54;;;;;;;0.70;0.70;;;5.00;99.90;;;;;;5035989;28;20256;-61
2022/01/10 04:18:22;;;;;;;0.80;0.80;;;5.00;99.90;;;;;;5038788;28;20200;-61
2022/01/10 04:20:50;;;;;;;0.70;0.70;;;5.00;99.90;;;;;;5049407;28;20236;-61
2022/01/10 04:23:18;;;;;;;0.63;0.63;;;5.00;99.90;;;;;;5047615;28;20208;-61
2022/01/10 04:25:45;;;;;;;0.80;0.80;;;5.00;99.90;;;;;;5048233;28;20232;-61
2022/01/10 04:28:13;;;;;;;0.80;0.80;;;4.90;99.90;;;;;;5051212;28;20257;-60
2022/01/10 04:30:39;;;;;;;0.80;0.80;;;4.90;99.90;;;;;;5049566;28;20242;-60
2022/01/10 04:33:06;;;;;;;0.87;0.87;;;5.00;99.90;;;;;;5046919;28;20212;-62
2022/01/10 04:35:34;;;;;;;0.70;0.70;;;5.00;99.90;;;;;;5047657;28;20233;-60
2022/01/10 04:38:02;;;;;;;0.80;0.80;;;5.00;99.90;;;;;;5047363;28;20257;-59
2022/01/10 04:40:29;;;;;;;0.90;0.90;;;5.00;99.90;;;;;;5043794;28;20224;-62
2022/01/10 04:42:56;;;;;;;0.80;0.80;;;5.10;99.90;;;;;;5037630;28;20236;-60
2022/01/10 04:45:23;;;;;;;0.80;0.80;;;5.10;99.90;;;;;;5036907;28;20616;-61
2022/01/10 04:47:50;;;;;;;0.60;0.60;;;5.10;99.90;;;;;;5036540;28;20251;-61
2022/01/10 04:53:05;;;;;;;0.80;0.80;;;5.10;99.90;;;;;;5030748;28;20193;-60
2022/01/10 04:55:32;;;;;;;0.80;0.80;;;5.10;99.90;;;;;;5037064;28;20766;-61
2022/01/10 04:57:59;;;;;;;0.80;0.80;;;5.00;99.90;;;;;;5038290;28;20211;-62
2022/01/10 05:00:26;;;;;;;0.90;0.90;;;5.10;99.90;;;;;;5037019;28;20226;-62
2022/01/10 05:02:53;;;;;;;0.90;0.90;;;5.00;99.90;;;;;;5037138;28;20678;-61
2022/01/10 05:05:20;;;;;;;0.80;0.80;;;5.00;99.90;;;;;;5038314;28;20526;-61
2022/01/10 05:07:47;;;;;;;0.90;0.90;;;5.10;99.90;;;;;;5037317;28;20208;-61
2022/01/10 05:10:16;;;;;;;0.90;0.90;;;5.10;99.90;;;;;;5036729;28;20236;-62
2022/01/10 05:12:43;;;;;;;0.97;0.97;;;5.10;99.90;;;;;;5036917;28;20737;-63
2022/01/10 05:15:10;;;;;;;1.00;1.00;;;5.10;99.90;;;;;;5036681;28;20209;-62
2022/01/10 05:17:37;;;;;;;0.90;0.90;;;5.20;99.90;;;;;;5036442;28;20237;-60
2022/01/10 05:20:05;;;;;;;0.80;0.80;;;5.30;99.90;;;;;;5036445;28;20797;-59
2022/01/10 05:22:32;;;;;;;0.80;0.80;;;5.20;99.90;;;;;;5035880;28;20288;-61
2022/01/10 05:24:59;;;;;;;0.87;0.87;;;5.20;99.90;;;;;;5036765;28;20299;-62
2022/01/10 05:27:27;;;;;;;0.90;0.90;;;5.30;99.90;;;;;;5037535;28;20315;-63
2022/01/10 05:29:54;;;;;;;0.87;0.87;;;5.30;99.90;;;;;;5037997;28;20673;-61
2022/01/10 05:32:21;;;;;;;0.87;0.87;;;5.30;99.90;;;;;;5036693;28;20292;-62
2022/01/10 05:34:48;;;;;;;0.90;0.90;;;5.30;99.90;;;;;;5036118;28;20243;-61
2022/01/10 05:37:14;;;;;;;0.83;0.83;;;5.30;99.90;;;;;;5035824;28;20232;-59
2022/01/10 05:39:41;;;;;;;0.90;0.90;;;5.30;99.90;;;;;;5036361;28;20220;-62
2022/01/10 05:42:08;;;;;;;0.80;0.80;;;5.20;99.90;;;;;;5036001;28;20247;-60
2022/01/10 05:44:37;;;;;;;0.70;0.70;;;5.20;99.90;;;;;;5036430;28;20235;-61
2022/01/10 05:47:04;;;;;;;0.75;0.75;;;5.10;99.90;;;;;;5036039;28;20232;-63
2022/01/10 05:49:34;;;;;;;0.73;0.73;;;5.20;99.90;;;;;;5036414;28;20236;-60
2022/01/10 05:52:01;;;;;;;0.80;0.80;;;5.20;99.90;;;;;;5036503;28;20227;-62
2022/01/10 05:54:28;;;;;;;0.70;0.70;;;5.20;99.90;;;;;;5037539;28;20241;-62
2022/01/10 05:56:55;;;;;;;0.80;0.80;;;5.30;99.90;;;;;;5038312;28;20283;-61
2022/01/10 05:59:21;;;;;;;0.80;0.80;;;5.30;99.90;;;;;;5042673;28;20268;-62
2022/01/10 06:01:50;;;;;;;0.90;0.90;;;5.30;99.90;;;;;;5038859;28;20208;-62
2022/01/10 06:04:17;;;;;;;0.80;0.80;;;5.30;99.90;;;;;;5039058;28;20235;-62
2022/01/10 06:06:43;;;;;;;0.70;0.70;;;5.30;99.90;;;;;;5044692;28;20768;-62
2022/01/10 06:09:10;;;;;;;0.87;0.87;;;5.30;99.90;;;;;;5044051;28;20232;-61
2022/01/10 06:11:39;;;;;;;0.90;0.90;;;5.30;99.90;;;;;;5031187;28;20284;-62
2022/01/10 06:14:07;;;;;;;0.85;0.85;;;5.30;99.90;;;;;;5022018;28;20216;-62
2022/01/10 06:16:34;;;;;;;0.97;0.80;;;5.40;99.90;;;;;;5029833;28;20229;-64
2022/01/10 06:19:02;;;;;;;0.90;0.90;;;5.30;99.90;;;;;;5033783;28;20216;-63
2022/01/10 06:21:29;;;;;;;0.80;0.80;;;5.30;99.90;;;;;;5036433;28;20216;-59
2022/01/10 06:23:56;;;;;;;0.90;0.90;;;5.30;99.90;;;;;;5041490;28;20240;-61
2022/01/10 06:26:22;;;;;;;0.83;0.83;;;5.30;99.90;;;;;;5043992;28;20225;-60
2022/01/10 06:28:49;;;;;;;0.93;0.93;;;5.30;99.90;;;;;;5042430;28;20703;-61
2022/01/10 06:31:16;;;;;;;0.70;0.70;;;5.30;99.90;;;;;;5038514;28;20215;-63
2022/01/10 06:33:43;;;;;;;0.90;0.90;;;5.30;99.90;;;;;;5037827;28;20637;-61
2022/01/10 06:36:12;;;;;;;0.93;0.93;;;5.30;99.90;;;;;;5030141;28;20248;-61
2022/01/10 06:38:39;;;;;;;0.80;0.80;;;5.30;99.90;;;;;;5022169;28;20228;-63
2022/01/10 06:41:05;;;;;;;0.70;0.70;;;5.30;99.90;;;;;;5024338;28;20217;-61
2022/01/10 06:43:33;;;;;;;0.73;0.73;;;5.30;99.90;;;;;;5025322;28;20280;-60
2022/01/10 06:46:00;;;;;;;0.80;0.80;;;5.30;99.90;;;;;;5031912;28;20663;-61
2022/01/10 06:48:26;;;;;;;0.80;0.80;;;5.40;99.90;;;;;;5036056;28;20262;-61
2022/01/10 06:50:54;;;;;;;1.10;1.10;;;5.40;99.90;;;;;;5035554;28;20243;-61
2022/01/10 06:53:23;;;;;;;1.17;1.17;;;5.30;99.90;;;;;;5030734;28;20201;-62
2022/01/10 06:55:50;;;;;;;1.30;1.30;;;5.20;99.90;;;;;;5022977;28;20730;-62
2022/01/10 06:58:17;;;;;;;1.30;1.27;;;5.20;99.90;;;;;;5026411;28;20198;-61
2022/01/10 07:00:45;;;;;;;1.00;1.00;;;5.00;99.90;;;;;;5036038;28;20224;-60
2022/01/10 07:03:12;;;;;;;0.93;0.93;;;5.10;99.90;;;;;;5035631;28;20205;-63
2022/01/10 07:05:38;;;;;;;1.10;1.10;;;5.20;99.90;;;;;;5035847;28;20320;-60
2022/01/10 07:08:06;;;;;;;1.07;1.07;;;5.30;99.90;;;;;;5035998;28;20300;-61
2022/01/10 07:10:34;;;;;;;1.00;1.00;;;5.40;99.90;;;;;;5035503;28;20632;-61
2022/01/10 07:13:01;;;;;;;1.00;1.00;;;5.40;99.90;;;;;;5035121;28;20637;-61
2022/01/10 07:15:29;;;;;;;1.00;1.00;;;5.40;99.90;;;;;;5036418;28;20231;-62
2022/01/10 07:17:56;;;;;;;1.10;1.10;;;5.40;99.90;;;;;;5037958;28;20200;-61
2022/01/10 07:20:23;;;;;;;0.93;0.93;;;5.40;99.90;;;;;;5039335;28;20221;-60
2022/01/10 07:22:50;;;;;;;1.00;1.00;;;5.40;99.90;;;;;;5038648;28;20236;-61
2022/01/10 07:25:17;;;;;;;1.00;1.00;;;5.50;99.90;;;;;;5040787;28;20240;-60
2022/01/10 07:27:45;;;;;;;1.23;1.20;;;5.60;99.90;;;;;;5021931;28;20297;-60
2022/01/10 07:30:12;;;;;;;1.10;1.10;;;5.50;99.90;;;;;;5018259;28;20289;-61
2022/01/10 07:32:39;;;;;;;0.90;0.90;;;5.50;99.90;;;;;;5016776;28;20308;-63
2022/01/10 07:35:07;;;;;;;0.90;0.90;;;5.50;99.90;;;;;;5015562;28;20297;-62
2022/01/10 07:37:34;;;;;;;0.90;0.90;;;5.50;99.90;;;;;;5014931;28;20230;-63
2022/01/10 07:40:01;;;;;;;0.93;0.93;;;5.60;99.90;;;;;;5015820;28;20260;-61
2022/01/10 07:42:27;;;;;;;1.03;1.03;;;5.60;99.90;;;;;;5015955;28;20268;-61
2022/01/10 07:44:56;;;;;;;1.17;1.17;;;5.50;99.90;;;;;;5015763;28;20299;-64
2022/01/10 07:47:23;;;;;;;0.90;0.90;;;5.60;99.90;;;;;;5015274;28;20352;-62
2022/01/10 07:49:51;;;;;;;0.90;0.90;;;5.50;99.90;;;;;;5013798;28;20709;-60
2022/01/10 07:52:18;;;;;;;1.30;1.20;;;5.50;99.90;;;;;;5014130;28;20209;-62
2022/01/10 07:54:45;;;;;;;0.90;0.90;;;5.50;99.90;;;;;;5021703;28;20307;-62
2022/01/10 07:57:12;;;;;;;1.20;1.20;;;5.60;99.90;;;;;;5023330;28;20225;-63
2022/01/10 07:59:40;;;;;;;1.00;1.00;;;5.50;99.90;;;;;;5024145;28;20229;-60
2022/01/10 08:02:09;;;;;;;1.27;1.27;;;5.50;99.90;;;;;;5021496;28;20240;-62
2022/01/10 08:04:36;;;;;;;1.40;1.40;;;5.60;99.90;;;;;;5017747;28;20216;-62
2022/01/10 08:07:04;;;;;;;1.47;1.47;;;5.60;99.90;;;;;;5018767;28;20225;-63
2022/01/10 08:09:31;;;;;;;1.50;1.40;;;5.50;99.90;;;;;;5017632;28;20634;-62
2022/01/10 08:11:59;;;;;;;1.40;1.40;;;5.50;99.90;;;;;;5017371;28;20288;-63
2022/01/10 08:14:26;;;;;;;1.60;1.60;;;5.60;99.90;;;;;;5016665;28;20304;-62
2022/01/10 08:16:53;;;;;;;1.80;1.70;;;5.60;99.90;;;;;;5016589;28;20228;-62
2022/01/10 08:19:21;;;;;;;2.10;2.00;;;5.60;99.90;;;;;;5016643;28;20232;-61
2022/01/10 08:21:49;;;;;;;1.90;1.80;;;5.40;99.90;;;;;;5015717;28;20908;-62
2022/01/10 08:24:17;;;;;;;2.10;2.00;;;5.40;99.90;;;;;;5014744;28;20623;-62
2022/01/10 08:26:44;;;;;;;2.22;2.13;;;5.40;99.90;;;;;;5014603;28;20217;-61
2022/01/10 08:29:11;;;;;;;1.70;1.60;;;5.50;99.90;;;;;;5015695;28;20244;-62
2022/01/10 08:31:38;;;;;;;2.00;1.90;;;5.50;99.90;;;;;;5024670;28;20232;-60
2022/01/10 08:34:05;;;;;;;1.90;1.80;;;5.60;99.90;;;;;;5027335;28;20233;-60
2022/01/10 08:36:34;;;;;;;2.23;2.13;;;5.40;99.90;;;;;;5028024;28;20284;-62
2022/01/10 08:39:01;;;;;;;2.00;1.90;;;5.40;99.90;;;;;;5020057;28;20240;-63
2022/01/10 08:41:28;;;;;;;2.00;1.90;;;5.30;99.90;;;;;;5013717;28;20255;-61
2022/01/10 08:43:55;;;;;;;1.90;1.80;;;5.30;99.90;;;;;;5015765;28;20244;-61
2022/01/10 08:46:23;;;;;;;1.80;1.70;;;5.30;99.90;;;;;;5014973;28;20316;-62
2022/01/10 08:48:50;;;;;;;2.10;2.00;;;5.40;99.90;;;;;;5016490;28;20288;-61
2022/01/10 08:51:17;;;;;;;2.13;2.03;;;5.40;99.90;;;;;;5016264;28;20209;-61
2022/01/10 08:53:45;;;;;;;1.93;1.83;;;5.40;99.90;;;;;;5014581;28;20296;-62
2022/01/10 08:56:12;;;;;;;2.00;1.90;;;5.40;99.90;;;;;;5015435;28;20292;-63
2022/01/10 08:58:39;;;;;;;2.23;2.13;;;5.30;99.90;;;;;;5014420;28;20212;-61
2022/01/10 09:01:07;;;;;;;2.00;1.90;;;5.30;99.90;;;;;;5015557;28;20225;-63
2022/01/10 09:03:35;;;;;;;2.30;2.10;;;5.40;99.90;;;;;;5013484;28;20288;-62
2022/01/10 09:06:02;;;;;;;1.97;1.87;;;5.40;99.90;;;;;;5012228;28;20304;-62
2022/01/10 09:08:33;;;;;;;1.90;1.80;;;5.40;99.90;;;;;;5013606;28;20248;-61
2022/01/10 09:11:02;;;;;;;2.00;1.90;;;5.50;99.90;;;;;;5014392;28;20201;-61
2022/01/10 09:13:29;;;;;;;2.10;2.00;;;5.50;99.90;;;;;;5013735;28;20269;-61
2022/01/10 09:15:56;;;;;;;2.00;1.90;;;5.60;99.90;;;;;;5016681;28;20225;-61
2022/01/10 09:18:23;;;;;;;2.37;2.23;;;5.60;99.90;;;;;;5023855;28;20208;-62
2022/01/10 09:20:51;;;;;;;2.40;2.30;;;5.60;99.90;;;;;;5015004;28;20213;-63
2022/01/10 09:23:19;;;;;;;2.30;2.20;;;5.40;99.90;;;;;;5016023;28;20761;-62
2022/01/10 09:25:46;;;;;;;2.20;2.10;;;5.30;99.90;;;;;;5016020;28;20309;-61
2022/01/10 09:28:14;;;;;;;2.10;2.00;;;5.40;99.90;;;;;;5017110;28;20212;-63
2022/01/10 09:30:41;;;;;;;2.20;2.10;;;5.40;99.90;;;;;;5013525;28;20282;-64
2022/01/10 09:33:07;;;;;;;2.00;1.90;;;5.50;99.90;;;;;;5019976;28;20310;-61
2022/01/10 09:35:35;;;;;;;2.10;2.00;;;5.60;99.90;;;;;;5031106;28;20217;-63
2022/01/10 09:38:01;;;;;;;2.37;2.17;;;5.70;99.90;;;;;;5031597;28;20736;-62
2022/01/10 09:40:28;;;;;;;2.00;1.90;;;5.60;99.90;;;;;;5018193;28;20655;-63
2022/01/10 09:42:55;;;;;;;2.07;1.97;;;5.60;99.90;;;;;;5019658;28;20207;-61
2022/01/10 09:45:24;;;;;;;2.10;2.00;;;5.70;99.90;;;;;;5022177;28;20296;-62
2022/01/10 09:47:50;;;;;;;2.27;2.17;;;5.80;99.90;;;;;;5020184;28;20293;-62
2022/01/10 09:50:17;;;;;;;2.10;2.00;;;6.00;99.90;;;;;;5022427;28;20201;-62
2022/01/10 09:52:51;;;;;;;2.10;2.00;;;5.90;99.90;;;;;;5012825;28;20197;-62
2022/01/10 09:55:19;;;;;;;2.30;2.20;;;5.90;99.90;;;;;;5016634;28;20212;-62
2022/01/10 09:57:46;;;;;;;2.10;2.00;;;6.00;99.90;;;;;;5016395;28;20308;-62
2022/01/10 10:00:15;;;;;;;2.08;1.98;;;6.20;99.90;;;;;;5015178;28;20244;-61
2022/01/10 10:02:43;;;;;;;2.03;1.93;;;6.30;99.90;;;;;;5013503;28;20225;-62
2022/01/10 10:05:12;;;;;;;2.20;2.10;;;6.40;99.90;;;;;;5019980;28;20237;-61
2022/01/10 10:07:41;;;;;;;2.10;2.00;;;6.50;99.90;;;;;;5019130;28;20742;-61
2022/01/10 10:10:11;;;;;;;2.30;2.20;;;6.60;99.90;;;;;;5017305;28;20292;-61
2022/01/10 10:12:39;;;;;;;2.23;2.13;;;6.60;99.90;;;;;;5015758;28;20233;-61
2022/01/10 10:15:08;;;;;;;2.50;2.40;;;6.60;99.90;;;;;;5020605;28;20213;-61
2022/01/10 10:17:35;;;;;;;2.30;2.20;;;6.50;99.90;;;;;;5026532;28;20225;-61
2022/01/10 10:20:08;;;;;;;2.80;2.60;;;6.50;99.90;;;;;;5018937;28;20216;-60
2022/01/10 10:22:35;;;;;;;2.63;2.53;;;6.50;99.90;;;;;;5015422;28;20582;-63
2022/01/10 10:25:05;;;;;;;3.00;2.90;;;6.50;99.90;;;;;;5001194;28;20208;-63
2022/01/10 10:27:36;;;;;;;2.53;2.43;;;6.60;99.90;;;;;;5015411;28;20307;-63
2022/01/10 10:30:06;;;;;;;2.90;2.70;;;6.70;99.90;;;;;;5016363;28;20210;-62
2022/01/10 10:32:33;;;;;;;2.90;2.80;;;6.90;99.90;;;;;;5013035;28;20281;-61
2022/01/10 10:34:59;;;;;;;2.67;2.57;;;7.00;99.90;;;;;;5019214;28;20247;-61
2022/01/10 10:37:29;;;;;;;2.57;2.37;;;6.80;99.90;;;;;;5027037;28;20540;-62
2022/01/10 10:39:58;;;;;;;2.60;2.50;;;6.70;99.90;;;;;;5016928;28;20205;-62
2022/01/10 10:42:29;;;;;;;2.73;2.63;;;6.90;99.90;;;;;;5023321;28;20228;-62
2022/01/10 10:44:57;;;;;;;2.37;2.27;;;7.10;99.90;;;;;;5016616;28;20667;-61
2022/01/10 10:47:27;;;;;;;2.70;2.50;;;6.60;99.90;;;;;;5021025;28;20265;-61
2022/01/10 10:49:58;;;;;;;2.40;2.30;;;6.40;99.90;;;;;;5020753;28;20197;-62
2022/01/10 10:52:32;;;;;;;2.53;2.43;;;6.40;99.90;;;;;;5019811;28;20233;-62
2022/01/10 10:55:03;;;;;;;2.67;2.47;;;6.30;99.90;;;;;;5006422;28;20212;-61
2022/01/10 10:57:32;;;;;;;2.30;2.20;;;6.40;99.90;;;;;;5011787;28;20660;-61
2022/01/10 11:00:00;;;;;;;2.00;1.90;;;6.40;99.90;;;;;;5013788;28;20197;-61
2022/01/10 11:02:27;;;;;;;2.33;2.23;;;6.60;99.90;;;;;;5009223;28;20599;-61
2022/01/10 11:04:55;;;;;;;2.13;2.03;;;6.50;99.90;;;;;;5013425;28;20723;-63
2022/01/10 11:07:24;;;;;;;2.20;2.10;;;6.50;99.90;;;;;;5018189;28;20613;-63
2022/01/10 11:09:52;;;;;;;2.20;2.10;;;6.50;99.90;;;;;;5010008;28;20220;-62
2022/01/10 11:12:23;;;;;;;2.07;1.97;;;6.50;99.90;;;;;;5015114;28;20193;-63
2022/01/10 11:14:52;;;;;;;1.90;1.80;;;6.60;99.90;;;;;;5015205;28;20197;-63
2022/01/10 11:17:21;;;;;;;2.00;1.90;;;6.70;99.90;;;;;;5012689;28;20251;-62
2022/01/10 11:20:09;;;;;;;2.20;2.10;;;7.00;99.90;;;;;;5010614;28;20300;-61
2022/01/10 11:22:38;;;;;;;2.47;2.37;;;7.10;99.90;;;;;;5009828;28;20216;-61
2022/01/10 11:25:20;;;;;;;2.50;2.40;;;7.10;99.90;;;;;;5008485;28;20659;-61
2022/01/10 11:27:48;;;;;;;2.40;2.30;;;7.20;99.90;;;;;;5013072;28;20214;-61
2022/01/10 11:30:31;;;;;;;2.87;2.77;;;7.20;99.90;;;;;;5013631;28;20204;-61
2022/01/10 11:33:02;;;;;;;2.60;2.50;;;7.10;99.90;;;;;;5015869;28;20312;-62
2022/01/10 11:35:30;;;;;;;2.17;2.07;;;6.90;99.90;;;;;;5012172;28;20197;-61
2022/01/10 11:37:57;;;;;;;2.20;2.10;;;7.00;99.90;;;;;;5012115;28;20719;-61
2022/01/10 11:40:26;;;;;;;2.40;2.30;;;7.10;99.90;;;;;;5012165;28;20284;-61
2022/01/10 11:42:57;;;;;;;2.40;2.30;;;7.10;99.90;;;;;;5008798;28;20252;-61
2022/01/10 11:45:24;;;;;;;2.20;2.10;;;7.00;99.90;;;;;;5012235;28;20380;-62
2022/01/10 11:48:16;;;;;;;2.60;2.50;;;6.90;99.90;;;;;;5012186;28;20308;-61
2022/01/10 11:50:45;;;;;;;2.30;2.20;;;7.00;99.90;;;;;;5002869;28;20201;-62
2022/01/10 11:53:13;;;;;;;2.53;2.43;;;7.00;99.90;;;;;;5011233;28;20220;-62
2022/01/10 11:55:44;;;;;;;2.53;2.43;;;7.20;99.90;;;;;;5011569;28;20303;-63
2022/01/10 11:58:19;;;;;;;2.73;2.63;;;7.30;99.90;;;;;;5013397;28;20732;-63
2022/01/10 12:00:46;;;;;;;2.50;2.40;;;7.50;99.90;;;;;;5015387;28;20636;-62
2022/01/10 12:03:13;;;;;;;3.07;2.87;;;7.60;99.90;;;;;;5020678;28;20409;-61
2022/01/10 12:05:41;;;;;;;2.50;2.40;;;7.40;99.90;;;;;;5020824;28;20235;-61
2022/01/10 12:08:09;;;;;;;2.70;2.60;;;7.30;99.90;;;;;;5022396;28;20197;-62
2022/01/10 12:10:36;;;;;;;2.80;2.63;;;7.20;99.90;;;;;;5018515;28;20201;-62
2022/01/10 12:13:09;;;;;;;2.70;2.60;;;7.30;99.90;;;;;;5014535;28;20198;-63
2022/01/10 12:15:37;;;;;;;2.70;2.50;;;7.30;99.90;;;;;;5015560;28;20200;-63
2022/01/10 12:18:05;;;;;;;2.77;2.60;;;7.10;99.90;;;;;;5015016;28;20213;-63
2022/01/10 12:20:32;;;;;;;2.50;2.40;;;7.10;99.90;;;;;;5014924;28;20273;-61
2022/01/10 12:23:00;;;;;;;2.80;2.60;;;6.90;99.90;;;;;;5016835;28;20218;-62
2022/01/10 12:25:28;;;;;;;2.47;2.37;;;6.70;99.90;;;;;;5018388;28;20271;-61
2022/01/10 12:27:58;;;;;;;2.47;2.37;;;6.70;99.90;;;;;;5014989;28;20275;-60
2022/01/10 12:30:27;;;;;;;2.83;2.73;;;6.80;99.90;;;;;;5013176;28;20209;-63
2022/01/10 12:32:55;;;;;;;2.70;2.60;;;6.60;99.90;;;;;;5014963;28;20674;-61
2022/01/10 12:35:23;;;;;;;2.60;2.50;;;6.60;99.90;;;;;;5014677;28;20201;-62
2022/01/10 12:37:57;;;;;;;2.90;2.70;;;6.60;99.90;;;;;;5013166;28;20225;-62
2022/01/10 12:40:31;;;;;;;2.50;2.40;;;6.60;99.90;;;;;;5021188;28;20570;-64
2022/01/10 12:42:59;;;;;;;2.40;2.30;;;6.60;99.90;;;;;;5027932;28;20231;-61
2022/01/10 12:45:33;;;;;;;2.50;2.40;;;6.70;99.90;;;;;;5022292;28;20213;-62
2022/01/10 12:48:00;;;;;;;2.50;2.40;;;6.80;99.90;;;;;;5016189;28;20795;-63
2022/01/10 12:50:27;;;;;;;2.90;2.70;;;6.80;99.90;;;;;;5010573;28;20620;-63
2022/01/10 12:52:54;;;;;;;2.50;2.40;;;6.90;99.90;;;;;;5000345;28;20213;-63
2022/01/10 12:55:21;;;;;;;3.00;2.80;;;6.80;99.90;;;;;;5023172;28;20273;-61
2022/01/10 12:57:53;;;;;;;2.53;2.33;;;6.60;99.90;;;;;;5025792;28;20282;-61
2022/01/10 13:00:20;;;;;;;2.67;2.50;;;6.60;99.90;;;;;;5028185;28;20296;-63
2022/01/10 13:02:48;;;;;;;2.65;2.55;;;6.60;99.90;;;;;;5019253;28;20275;-61
2022/01/10 13:05:17;;;;;;;2.80;2.63;;;6.60;99.90;;;;;;5012996;28;20206;-61
2022/01/10 13:07:46;;;;;;;2.60;2.50;;;6.60;99.90;;;;;;5013647;28;20715;-62
2022/01/10 13:10:21;;;;;;;2.70;2.50;;;6.70;99.90;;;;;;5019910;28;20296;-61